createdAt,value
2022-11-09T00:01:37.508Z,8.50
2022-11-09T00:06:40.608Z,8.53
2022-11-09T00:11:43.581Z,7.93
2022-11-09T00:16:46.658Z,8.27
2022-11-09T00:21:49.852Z,8.53
2022-11-09T00:26:53.067Z,7.77
2022-11-09T00:31:56.084Z,8.10
2022-11-09T00:36:59.060Z,8.10
2022-11-09T00:42:02.213Z,7.70
2022-11-09T00:47:06.081Z,7.27
2022-11-09T00:52:09.104Z,6.93
2022-11-09T00:57:13.953Z,7.40
2022-11-09T01:02:20.395Z,8.20
2022-11-09T01:07:23.423Z,7.13
2022-11-09T01:12:27.815Z,6.97
2022-11-09T01:17:30.810Z,6.87
2022-11-09T01:22:33.669Z,6.80
2022-11-09T01:27:36.970Z,7.03
2022-11-09T01:32:41.675Z,6.93
2022-11-09T01:37:44.479Z,6.97
2022-11-09T01:42:47.857Z,7.40
2022-11-09T01:47:58.987Z,7.47
2022-11-09T01:53:03.159Z,8.20
2022-11-09T01:58:09.465Z,7.20
2022-11-09T02:03:26.950Z,8.30
2022-11-09T02:08:30.076Z,8.00
2022-11-09T02:13:34.330Z,8.13
2022-11-09T02:18:52.685Z,8.23
2022-11-09T02:23:55.951Z,8.37
2022-11-09T02:29:01.690Z,8.33
2022-11-09T02:34:11.075Z,9.07
2022-11-09T02:39:15.643Z,8.93
2022-11-09T02:44:19.920Z,8.73
2022-11-09T02:49:22.992Z,7.83
2022-11-09T02:54:25.830Z,8.10
2022-11-09T02:59:30.340Z,8.30
2022-11-09T03:04:34.395Z,9.07
2022-11-09T03:09:38.193Z,8.97
2022-11-09T03:14:41.603Z,9.40
2022-11-09T03:19:46.188Z,9.83
2022-11-09T03:24:50.357Z,9.20
2022-11-09T03:29:53.884Z,8.83
2022-11-09T03:34:57.189Z,8.97
2022-11-09T03:40:00.694Z,9.77
2022-11-09T03:45:04.062Z,8.53
2022-11-09T03:50:07.563Z,9.63
2022-11-09T03:55:10.618Z,9.10
2022-11-09T04:00:16.130Z,9.40
2022-11-09T04:05:19.998Z,9.70
2022-11-09T04:10:23.851Z,9.43
2022-11-09T04:15:26.953Z,10.23
2022-11-09T04:20:31.367Z,9.70
2022-11-09T04:25:36.701Z,10.57
2022-11-09T04:30:41.178Z,9.10
2022-11-09T04:35:44.386Z,10.23
2022-11-09T04:40:47.603Z,9.87
2022-11-09T04:45:50.566Z,9.77
2022-11-09T04:50:53.374Z,10.00
2022-11-09T04:55:57.119Z,10.53
2022-11-09T05:01:08.719Z,10.87
2022-11-09T05:06:30.157Z,11.60
2022-11-09T05:11:34.352Z,11.60
2022-11-09T05:16:37.398Z,11.40
2022-11-09T05:21:40.280Z,14.93
2022-11-09T05:26:43.205Z,11.93
2022-11-09T05:31:52.103Z,11.67
2022-11-09T05:36:59.354Z,11.80
2022-11-09T05:42:05.366Z,11.50
2022-11-09T05:47:08.519Z,13.17
2022-11-09T05:52:11.552Z,11.73
2022-11-09T05:57:14.925Z,12.73
2022-11-09T06:02:18.330Z,13.60
2022-11-09T06:07:21.495Z,14.00
2022-11-09T06:12:25.280Z,12.93
2022-11-09T06:17:29.217Z,16.77
2022-11-09T06:22:32.298Z,13.83
2022-11-09T06:27:35.781Z,12.60
2022-11-09T06:32:38.825Z,14.17
2022-11-09T06:37:41.919Z,14.20
2022-11-09T06:42:45.098Z,13.53
2022-11-09T06:47:47.993Z,13.83
2022-11-09T06:52:51.077Z,12.90
2022-11-09T06:57:54.246Z,12.60
2022-11-09T07:02:57.388Z,14.03
2022-11-09T07:08:00.471Z,12.97
2022-11-09T07:13:03.616Z,13.77
2022-11-09T07:18:08.757Z,12.87
2022-11-09T07:23:12.142Z,13.87
2022-11-09T07:28:15.105Z,15.60
2022-11-09T07:33:21.202Z,19.93
2022-11-09T07:38:24.708Z,14.67
2022-11-09T07:43:28.438Z,15.00
2022-11-09T07:48:35.891Z,14.60
2022-11-09T07:53:38.929Z,14.23
2022-11-09T07:58:41.908Z,14.03
2022-11-09T08:03:45.198Z,13.80
2022-11-09T08:08:49.836Z,14.27
2022-11-09T08:13:53.263Z,14.70
2022-11-09T08:18:56.485Z,14.63
2022-11-09T08:23:59.578Z,13.90
2022-11-09T08:29:02.746Z,12.43
2022-11-09T08:34:05.873Z,13.13
2022-11-09T08:39:09.065Z,14.83
2022-11-09T08:44:12.249Z,13.87
2022-11-09T08:49:16.468Z,12.47
2022-11-09T08:54:21.571Z,11.97
2022-11-09T08:59:24.615Z,12.67
2022-11-09T09:04:28.164Z,14.20
2022-11-09T09:09:32.421Z,13.20
2022-11-09T09:14:35.362Z,11.77
2022-11-09T09:19:38.573Z,11.90
2022-11-09T09:24:41.750Z,12.10
2022-11-09T09:29:45.265Z,12.67
2022-11-09T09:34:48.162Z,12.10
2022-11-09T09:39:51.260Z,11.17
2022-11-09T09:45:05.409Z,10.33
2022-11-09T09:50:19.340Z,15.37
2022-11-09T09:55:36.443Z,12.80
2022-11-09T10:00:40.081Z,12.17
2022-11-09T10:06:25.057Z,13.23
2022-11-09T10:11:37.719Z,12.63
2022-11-09T10:17:03.839Z,12.93
2022-11-09T10:22:06.890Z,11.60
2022-11-09T10:27:25.280Z,11.47
2022-11-09T10:32:31.060Z,12.00
2022-11-09T10:37:46.741Z,11.23
2022-11-09T10:42:52.254Z,11.70
2022-11-09T10:48:14.681Z,12.17
2022-11-09T10:53:36.154Z,11.27
2022-11-09T10:58:57.750Z,11.40
2022-11-09T11:04:25.628Z,11.30
2022-11-09T11:09:47.402Z,10.67
2022-11-09T11:15:41.175Z,11.00
2022-11-09T11:21:16.071Z,11.57
2022-11-09T11:27:07.909Z,13.40
2022-11-09T11:32:31.528Z,12.20
2022-11-09T11:37:56.008Z,12.87
2022-11-09T11:43:23.144Z,13.73
2022-11-09T11:49:14.328Z,13.47
2022-11-09T11:54:38.327Z,13.90
2022-11-09T12:00:05.454Z,13.07
2022-11-09T12:05:50.512Z,12.37
2022-11-09T12:11:43.146Z,12.97
2022-11-09T12:17:21.172Z,11.60
2022-11-09T12:23:23.523Z,11.03
2022-11-09T12:28:56.044Z,13.60
2022-11-09T12:34:27.085Z,11.73
2022-11-09T12:39:55.821Z,11.50
2022-11-09T12:45:29.167Z,10.93
2022-11-09T12:50:51.894Z,11.70
2022-11-09T12:56:26.999Z,12.00
2022-11-09T13:01:54.610Z,13.53
2022-11-09T13:07:19.703Z,16.47
2022-11-09T13:12:43.222Z,13.13
2022-11-09T13:18:24.417Z,14.50
2022-11-09T13:24:03.908Z,13.47
2022-11-09T13:29:56.060Z,12.40
2022-11-09T13:35:40.479Z,13.47
2022-11-09T13:41:31.020Z,15.50
2022-11-09T13:46:54.256Z,13.63
2022-11-09T13:52:44.181Z,14.50
2022-11-09T13:58:10.489Z,12.90
2022-11-09T14:03:33.063Z,14.40
2022-11-09T14:08:55.155Z,13.57
2022-11-09T14:14:41.283Z,13.13
2022-11-09T14:20:29.745Z,12.60
2022-11-09T14:25:51.599Z,90.27
2022-11-09T14:31:29.960Z,14.37
2022-11-09T14:36:53.081Z,15.00
2022-11-09T14:42:19.844Z,15.27
2022-11-09T14:47:45.511Z,14.07
2022-11-09T14:53:07.188Z,14.77
2022-11-09T14:58:30.533Z,13.27
2022-11-09T15:04:14.961Z,18.00
2022-11-09T15:09:44.284Z,13.50
2022-11-09T15:15:07.868Z,16.07
2022-11-09T15:20:33.554Z,25.43
2022-11-09T15:25:56.407Z,29.53
2022-11-09T15:31:19.751Z,28.93
2022-11-09T15:36:45.000Z,19.73
2022-11-09T15:42:11.886Z,21.17
2022-11-09T15:47:37.063Z,16.60
2022-11-09T15:52:58.736Z,21.10
2022-11-09T15:58:20.529Z,19.30
2022-11-09T16:03:42.253Z,15.73
2022-11-09T16:09:04.097Z,15.73
2022-11-09T16:14:25.793Z,19.67
2022-11-09T16:19:47.562Z,18.37
2022-11-09T16:25:09.845Z,30.90
2022-11-09T16:30:31.761Z,16.37
2022-11-09T16:35:54.686Z,26.43
2022-11-09T16:41:16.827Z,26.77
2022-11-09T16:46:41.293Z,20.33
2022-11-09T16:52:02.797Z,23.50
2022-11-09T16:57:24.517Z,25.07
2022-11-09T17:02:46.610Z,41.70
2022-11-09T17:08:09.467Z,20.30
2022-11-09T17:13:30.757Z,21.17
2022-11-09T17:18:54.055Z,23.63
2022-11-09T17:24:15.466Z,27.47
2022-11-09T17:29:38.015Z,20.07
2022-11-09T17:34:59.350Z,25.20
2022-11-09T17:40:21.566Z,17.87
2022-11-09T17:45:43.422Z,23.37
2022-11-09T17:51:06.297Z,20.23
2022-11-09T17:56:28.332Z,20.27
2022-11-09T18:01:50.310Z,18.83
2022-11-09T18:07:12.949Z,20.57
2022-11-09T18:12:34.505Z,19.50
2022-11-09T18:17:56.203Z,22.47
2022-11-09T18:23:18.529Z,19.53
2022-11-09T18:28:40.187Z,23.63
2022-11-09T18:34:02.056Z,23.73
2022-11-09T18:39:26.535Z,23.97
2022-11-09T18:44:48.125Z,21.73
2022-11-09T18:50:09.832Z,22.90
2022-11-09T18:55:31.813Z,21.40
2022-11-09T19:01:02.457Z,25.03
2022-11-09T19:06:24.987Z,23.70
2022-11-09T19:11:46.694Z,24.33
2022-11-09T19:17:13.196Z,24.27
2022-11-09T19:22:36.085Z,25.73
2022-11-09T19:27:58.200Z,26.60
2022-11-09T19:33:21.227Z,28.40
2022-11-09T19:38:45.152Z,29.87
2022-11-09T19:44:08.590Z,27.77
2022-11-09T19:49:32.444Z,29.20
2022-11-09T19:54:54.408Z,27.43
2022-11-09T20:00:17.078Z,24.83
2022-11-09T20:05:39.391Z,27.23
2022-11-09T20:11:09.672Z,25.70
2022-11-09T20:16:32.979Z,26.27
2022-11-09T20:21:55.211Z,26.73
2022-11-09T20:27:17.011Z,27.80
2022-11-09T20:32:39.458Z,28.57
2022-11-09T20:38:01.508Z,33.90
2022-11-09T20:43:24.094Z,32.37
2022-11-09T20:48:54.220Z,28.07
2022-11-09T20:54:20.433Z,27.10
2022-11-09T20:59:45.292Z,30.67
2022-11-09T21:05:10.992Z,26.70
2022-11-09T21:10:36.830Z,26.83
2022-11-09T21:16:19.251Z,27.57
2022-11-09T21:21:48.283Z,24.70
2022-11-09T21:27:37.090Z,24.80
2022-11-09T21:33:02.790Z,24.33
2022-11-09T21:38:28.530Z,24.53
2022-11-09T21:43:53.671Z,24.27
2022-11-09T21:49:15.178Z,24.30
2022-11-09T21:54:36.513Z,25.50
2022-11-09T21:59:57.839Z,23.40
2022-11-09T22:05:23.014Z,23.73
2022-11-09T22:10:45.050Z,25.07
2022-11-09T22:16:06.913Z,24.03
2022-11-09T22:21:28.701Z,25.90
2022-11-09T22:26:50.091Z,24.17
2022-11-09T22:32:11.652Z,23.83
2022-11-09T22:37:32.956Z,23.67
2022-11-09T22:42:57.460Z,25.57
2022-11-09T22:48:19.109Z,25.03
2022-11-09T22:53:43.803Z,26.50
2022-11-09T22:59:05.657Z,23.43
2022-11-09T23:04:27.960Z,24.27
2022-11-09T23:09:49.870Z,25.07
2022-11-09T23:15:13.503Z,23.77
2022-11-09T23:20:35.950Z,23.37
2022-11-09T23:25:57.864Z,24.10
2022-11-09T23:31:24.301Z,24.73
2022-11-09T23:36:45.807Z,22.30
2022-11-09T23:42:07.284Z,23.50
2022-11-09T23:47:29.001Z,22.70
2022-11-09T23:52:50.379Z,20.73
2022-11-09T23:58:13.285Z,18.97
